Time;durP1;ratioP1;P1;durP2;ratioP2;P2;SDS_P1;SDS_P2;PMS_P1;PMS_P2;Temp;Humidity;BMP_temperature;BMP_pressure;BME280_temperature;BME280_humidity;BME280_pressure;Samples;Min_cycle;Max_cycle;Signal;HPM_P1;HPM_P2
2023/06/02 00:00:09;;;;;;;;;;;21.60;91.80;21.70;99253.00;;;;335280;29;83609;-88
2023/06/02 00:00:21;;;;;;;;;;;21.60;91.90;21.60;99255.00;;;;335851;28;97497;-88
2023/06/02 00:00:39;;;;;;;;;;;21.60;91.80;21.60;99255.00;;;;332696;29;82594;-89
2023/06/02 00:00:51;;;;;;;;;;;21.60;91.60;21.50;99250.00;;;;333418;29;95471;-88
2023/06/02 00:01:03;;;;;;;;;;;21.60;91.90;21.50;99252.00;;;;335337;29;83472;-89
2023/06/02 00:01:15;;;;;;;;;;;21.60;91.90;21.50;99249.00;;;;331972;29;96627;-89
2023/06/02 00:01:31;;;;;;;;;;;21.60;91.90;21.50;99248.00;;;;334200;29;82531;-89
2023/06/02 00:01:49;;;;;;;;;;;21.60;92.00;21.50;99253.00;;;;335841;28;96110;-88
2023/06/02 00:02:01;;;;;;;;;;;21.50;91.80;21.60;99248.00;;;;332752;29;83346;-88
2023/06/02 00:02:12;;;;;;;;;;;21.60;91.80;21.50;99254.00;;;;334447;29;97529;-89
2023/06/02 00:02:29;;;;;;;;;;;21.60;91.90;21.60;99247.00;;;;333918;29;82403;-89
2023/06/02 00:02:43;;;;;;;;;;;21.60;91.90;21.60;99246.00;;;;333279;29;95856;-89
2023/06/02 00:02:56;;;;;;;;;;;21.60;91.90;21.60;99249.00;;;;333991;29;83447;-89
2023/06/02 00:03:11;;;;;;;;;;;21.60;91.70;21.60;99252.00;;;;331851;29;95861;-88
2023/06/02 00:03:26;;;;;;;;;;;21.60;91.60;21.70;99248.00;;;;334044;29;83383;-89
2023/06/02 00:03:38;;;;;;;;;;;21.60;91.30;21.90;99249.00;;;;334511;29;96906;-89
2023/06/02 00:03:53;;;;;;;;;;;21.60;91.30;21.80;99250.00;;;;335361;29;82532;-89
2023/06/02 00:04:05;;;;;;;;;;;21.60;91.30;21.70;99250.00;;;;332078;29;94807;-89
2023/06/02 00:04:17;;;;;;;;;;;21.60;91.50;21.80;99244.00;;;;333972;29;83611;-90
2023/06/02 00:04:29;;;;;;;;;;;21.60;91.50;21.80;99248.00;;;;331977;29;96815;-89
2023/06/02 00:04:41;;;;;;;;;;;21.60;91.40;21.70;99248.00;;;;337909;28;83503;-89
2023/06/02 00:04:53;;;;;;;;;;;21.60;91.50;21.80;99255.00;;;;333298;29;95782;-89
2023/06/02 00:05:05;;;;;;;;;;;21.60;91.50;21.80;99244.00;;;;334047;29;82496;-88
2023/06/02 00:05:17;;;;;;;;;;;21.60;91.30;21.80;99251.00;;;;333198;29;96924;-89
2023/06/02 00:05:29;;;;;;;;;;;21.60;91.20;21.90;99249.00;;;;332801;29;83450;-89
2023/06/02 00:05:41;;;;;;;;;;;21.60;91.30;21.80;99245.00;;;;331929;29;95817;-89
2023/06/02 00:05:53;;;;;;;;;;;21.60;91.10;21.80;99247.00;;;;332888;29;83325;-89
2023/06/02 00:06:05;;;;;;;;;;;21.60;91.00;21.80;99250.00;;;;330717;29;97405;-89
2023/06/02 00:06:18;;;;;;;;;;;21.60;91.10;21.80;99251.00;;;;332684;29;83580;-89
2023/06/02 00:06:33;;;;;;;;;;;21.60;91.10;21.80;99251.00;;;;332024;29;96818;-89
2023/06/02 00:06:47;;;;;;;;;;;21.60;91.40;21.60;99248.00;;;;334060;29;82566;-88
2023/06/02 00:07:03;;;;;;;;;;;21.60;91.50;21.70;99252.00;;;;336059;28;96475;-89
2023/06/02 00:07:15;;;;;;;;;;;21.60;91.40;21.70;99250.00;;;;335315;29;83474;-89
2023/06/02 00:07:27;;;;;;;;;;;21.60;91.30;21.70;99252.00;;;;332175;29;94246;-89
2023/06/02 00:07:39;;;;;;;;;;;21.60;91.20;21.70;99247.00;;;;334122;29;82573;-89
2023/06/02 00:07:51;;;;;;;;;;;21.60;91.30;21.80;99240.00;;;;336079;28;95413;-89
2023/06/02 00:08:03;;;;;;;;;;;21.60;91.30;21.80;99245.00;;;;334105;29;83426;-89
2023/06/02 00:08:17;;;;;;;;;;;21.60;91.10;21.80;99240.00;;;;331954;29;97822;-89
2023/06/02 00:08:32;;;;;;;;;;;21.60;91.10;21.70;99256.00;;;;334124;29;83367;-89
2023/06/02 00:08:45;;;;;;;;;;;21.60;91.40;21.70;99248.00;;;;334638;29;95733;-89
2023/06/02 00:08:57;;;;;;;;;;;21.60;91.40;21.70;99248.00;;;;335365;29;83472;-89
2023/06/02 00:09:10;;;;;;;;;;;21.60;91.40;21.70;99249.00;;;;334647;29;93799;-89
2023/06/02 00:09:21;;;;;;;;;;;21.60;91.40;21.70;99246.00;;;;335355;29;82659;-89
2023/06/02 00:09:37;;;;;;;;;;;21.60;91.40;21.80;99247.00;;;;333269;29;96671;-89
2023/06/02 00:09:49;;;;;;;;;;;21.60;91.10;21.80;99248.00;;;;331568;29;83347;-89
2023/06/02 00:10:02;;;;;;;;;;;21.60;91.10;21.70;99254.00;;;;334709;29;94078;-88
2023/06/02 00:10:14;;;;;;;;;;;21.70;91.30;21.70;99240.00;;;;332893;29;82483;-89
2023/06/02 00:10:25;;;;;;;;;;;21.60;91.40;21.70;99251.00;;;;331993;29;96681;-89
2023/06/02 00:10:38;;;;;;;;;;;21.60;91.30;21.70;99243.00;;;;332734;29;83412;-89
2023/06/02 00:10:50;;;;;;;;;;;21.60;91.30;21.70;99250.00;;;;333286;29;96460;-89
2023/06/02 00:11:02;;;;;;;;;;;21.60;91.40;21.70;99247.00;;;;334028;29;82400;-89
2023/06/02 00:11:14;;;;;;;;;;;21.60;91.30;21.70;99246.00;;;;333262;29;96894;-89
2023/06/02 00:11:26;;;;;;;;;;;21.60;91.20;21.70;99246.00;;;;335378;29;83529;-89
2023/06/02 00:11:38;;;;;;;;;;;21.60;91.20;21.70;99241.00;;;;332076;29;95474;-89
2023/06/02 00:11:50;;;;;;;;;;;21.60;91.40;21.70;99247.00;;;;334065;29;83437;-89
2023/06/02 00:12:02;;;;;;;;;;;21.60;91.10;21.70;99244.00;;;;335904;28;97060;-89
2023/06/02 00:12:14;;;;;;;;;;;21.60;90.90;21.60;99245.00;;;;332678;29;83400;-89
2023/06/02 00:12:26;;;;;;;;;;;21.60;91.10;21.60;99246.00;;;;331972;29;97859;-89
2023/06/02 00:12:38;;;;;;;;;;;21.60;91.30;21.60;99245.00;;;;334072;29;83451;-89
2023/06/02 00:12:50;;;;;;;;;;;21.60;91.30;21.70;99246.00;;;;333360;29;95559;-89
2023/06/02 00:13:02;;;;;;;;;;;21.60;91.10;21.70;99239.00;;;;332773;29;82496;-88
2023/06/02 00:13:14;;;;;;;;;;;21.60;91.00;21.80;99238.00;;;;333340;29;95421;-89
2023/06/02 00:13:26;;;;;;;;;;;21.60;91.00;21.80;99241.00;;;;334054;29;83509;-89
2023/06/02 00:13:38;;;;;;;;;;;21.60;90.80;21.80;99238.00;;;;332040;29;95852;-88
2023/06/02 00:13:50;;;;;;;;;;;21.60;90.80;21.80;99241.00;;;;335422;29;82583;-89
2023/06/02 00:14:05;;;;;;;;;;;21.70;90.80;21.80;99235.00;;;;330810;29;96934;-90
2023/06/02 00:14:17;;;;;;;;;;;21.70;90.80;21.80;99240.00;;;;334024;29;83427;-89
2023/06/02 00:14:30;;;;;;;;;;;21.70;90.80;21.80;99236.00;;;;334614;29;97357;-89
2023/06/02 00:14:42;;;;;;;;;;;21.60;90.80;21.80;99241.00;;;;335371;29;83370;-89
2023/06/02 00:14:54;;;;;;;;;;;21.60;90.90;21.80;99242.00;;;;331952;29;97141;-89
2023/06/02 00:15:07;;;;;;;;;;;21.60;90.80;21.80;99241.00;;;;332804;29;82523;-89
2023/06/02 00:15:19;;;;;;;;;;;21.70;90.80;21.80;99239.00;;;;331910;29;97136;-89
2023/06/02 00:15:31;;;;;;;;;;;21.70;90.90;21.80;99237.00;;;;334105;29;82520;-88
2023/06/02 00:15:43;;;;;;;;;;;21.70;90.80;21.90;99241.00;;;;333332;29;95518;-89
2023/06/02 00:15:55;;;;;;;;;;;21.70;91.00;21.90;99240.00;;;;330224;29;82698;-89
2023/06/02 00:16:08;;;;;;;;;;;21.70;91.00;21.90;99242.00;;;;333392;29;93308;-89
2023/06/02 00:16:20;;;;;;;;;;;21.70;91.10;21.90;99239.00;;;;334122;29;82440;-89
2023/06/02 00:16:34;;;;;;;;;;;21.60;91.10;21.80;99244.00;;;;333234;29;97504;-89
2023/06/02 00:16:46;;;;;;;;;;;21.70;91.10;21.80;99237.00;;;;334022;29;83456;-89
2023/06/02 00:17:00;;;;;;;;;;;21.70;91.10;21.80;99235.00;;;;334529;29;96246;-89
2023/06/02 00:17:12;;;;;;;;;;;21.60;91.10;21.80;99246.00;;;;334120;29;82528;-89
2023/06/02 00:17:24;;;;;;;;;;;21.70;91.20;21.70;99246.00;;;;333354;29;96756;-89
2023/06/02 00:17:36;;;;;;;;;;;21.70;91.50;21.70;99248.00;;;;335316;29;82525;-89
2023/06/02 00:17:48;;;;;;;;;;;21.70;91.50;21.80;99243.00;;;;334572;29;96154;-89
2023/06/02 00:18:00;;;;;;;;;;;21.70;91.20;21.80;99236.00;;;;330223;29;82449;-89
2023/06/02 00:18:12;;;;;;;;;;;21.70;91.30;21.80;99240.00;;;;331939;29;97073;-89
2023/06/02 00:18:25;;;;;;;;;;;21.60;91.40;21.70;99247.00;;;;336556;28;83501;-89
2023/06/02 00:18:37;;;;;;;;;;;21.70;91.50;21.80;99237.00;;;;333228;29;96651;-88
2023/06/02 00:18:52;;;;;;;;;;;21.60;91.30;21.80;99247.00;;;;335271;29;83449;-87
2023/06/02 00:19:04;;;;;;;;;;;21.60;91.10;21.60;99241.00;;;;334562;29;96555;-89
2023/06/02 00:19:18;;;;;;;;;;;21.60;91.30;21.70;99243.00;;;;334039;29;83424;-88
2023/06/02 00:19:30;;;;;;;;;;;21.60;91.30;21.80;99243.00;;;;335821;28;97514;-89
2023/06/02 00:19:42;;;;;;;;;;;21.60;91.40;21.70;99236.00;;;;334043;29;82594;-89
2023/06/02 00:19:56;;;;;;;;;;;21.60;91.40;21.60;99226.00;;;;333260;29;95041;-89
2023/06/02 00:20:10;;;;;;;;;;;21.60;91.50;21.70;99240.00;;;;335395;29;82619;-89
2023/06/02 00:20:26;;;;;;;;;;;21.60;91.50;21.70;99238.00;;;;333180;29;96658;-89
2023/06/02 00:20:38;;;;;;;;;;;21.60;91.30;21.60;99237.00;;;;332729;29;82588;-89
2023/06/02 00:20:49;;;;;;;;;;;21.60;91.60;21.60;99238.00;;;;331673;29;97011;-89
2023/06/02 00:21:02;;;;;;;;;;;21.60;91.70;21.60;99238.00;;;;332720;29;82642;-89
2023/06/02 00:21:14;;;;;;;;;;;21.60;91.60;21.60;99241.00;;;;333233;29;97276;-89
2023/06/02 00:21:26;;;;;;;;;;;21.60;91.70;21.70;99250.00;;;;335340;29;83432;-89
2023/06/02 00:21:39;;;;;;;;;;;21.60;91.60;21.70;99245.00;;;;333247;29;95346;-89
2023/06/02 00:21:53;;;;;;;;;;;21.60;91.60;21.70;99246.00;;;;336610;28;82546;-88
2023/06/02 00:22:05;;;;;;;;;;;21.60;91.60;21.60;99242.00;;;;334622;29;97058;-90
2023/06/02 00:22:17;;;;;;;;;;;21.60;91.70;21.50;99243.00;;;;332771;29;83523;-89
2023/06/02 00:22:29;;;;;;;;;;;21.60;91.90;21.50;99243.00;;;;333237;29;96608;-89
2023/06/02 00:22:41;;;;;;;;;;;21.50;91.90;21.30;99246.00;;;;333998;29;83457;-88
2023/06/02 00:22:54;;;;;;;;;;;21.50;91.90;21.30;99243.00;;;;332021;29;95066;-89
2023/06/02 00:23:08;;;;;;;;;;;21.50;91.90;21.30;99244.00;;;;332895;29;82519;-88
2023/06/02 00:23:21;;;;;;;;;;;21.50;91.90;21.30;99248.00;;;;330694;29;96888;-89
2023/06/02 00:23:33;;;;;;;;;;;21.50;91.90;21.30;99249.00;;;;333966;29;83461;-89
2023/06/02 00:23:45;;;;;;;;;;;21.50;91.80;21.30;99243.00;;;;331916;29;96770;-89
2023/06/02 00:23:57;;;;;;;;;;;21.50;91.90;21.30;99243.00;;;;334003;29;83540;-89
2023/06/02 00:24:09;;;;;;;;;;;21.50;91.90;21.30;99244.00;;;;333258;29;96832;-89
2023/06/02 00:24:21;;;;;;;;;;;21.50;91.90;21.30;99244.00;;;;333995;29;83452;-88
2023/06/02 00:24:32;;;;;;;;;;;21.50;92.00;21.40;99244.00;;;;333307;29;94210;-90
2023/06/02 00:24:44;;;;;;;;;;;21.50;91.80;21.50;99239.00;;;;334158;29;83391;-89
2023/06/02 00:24:56;;;;;;;;;;;21.50;91.60;21.50;99239.00;;;;331878;29;96833;-89
2023/06/02 00:25:08;;;;;;;;;;;21.40;91.50;21.40;99246.00;;;;333990;29;83442;-89
2023/06/02 00:25:20;;;;;;;;;;;21.50;91.70;21.40;99240.00;;;;334457;29;97632;-89
2023/06/02 00:25:32;;;;;;;;;;;21.50;91.80;21.30;99239.00;;;;331375;29;83306;-89
2023/06/02 00:25:44;;;;;;;;;;;21.40;91.80;21.40;99238.00;;;;330730;29;96510;-89
2023/06/02 00:25:57;;;;;;;;;;;21.40;91.80;21.40;99231.00;;;;334015;29;83514;-89
2023/06/02 00:26:09;;;;;;;;;;;21.40;91.60;21.50;99236.00;;;;333332;29;96586;-89
2023/06/02 00:26:20;;;;;;;;;;;21.40;91.50;21.50;99239.00;;;;336584;28;82606;-89
2023/06/02 00:26:32;;;;;;;;;;;21.40;91.40;21.50;99244.00;;;;334549;29;95298;-90
2023/06/02 00:26:44;;;;;;;;;;;21.40;91.50;21.50;99237.00;;;;334055;29;83426;-89
2023/06/02 00:26:56;;;;;;;;;;;21.40;91.60;21.50;99244.00;;;;333207;29;96981;-88
2023/06/02 00:27:11;;;;;;;;;;;21.40;91.70;21.40;99244.00;;;;334044;29;82591;-89
2023/06/02 00:27:22;;;;;;;;;;;21.40;91.90;21.40;99237.00;;;;332052;29;96320;-89
2023/06/02 00:27:34;;;;;;;;;;;21.40;92.00;21.40;99241.00;;;;335224;29;83411;-89
2023/06/02 00:27:46;;;;;;;;;;;21.40;91.90;21.40;99235.00;;;;332134;29;92674;-88
2023/06/02 00:27:58;;;;;;;;;;;21.40;91.80;21.40;99237.00;;;;331455;29;83469;-89
2023/06/02 00:28:10;;;;;;;;;;;21.40;91.90;21.50;99233.00;;;;333343;29;96438;-89
2023/06/02 00:28:22;;;;;;;;;;;21.40;91.60;21.60;99234.00;;;;334069;29;82508;-89
2023/06/02 00:28:34;;;;;;;;;;;21.40;91.60;21.50;99237.00;;;;335883;28;95913;-89
2023/06/02 00:28:46;;;;;;;;;;;21.40;91.80;21.40;99240.00;;;;334117;29;83357;-89
2023/06/02 00:28:57;;;;;;;;;;;21.40;91.90;21.50;99235.00;;;;334522;29;95907;-89
2023/06/02 00:29:09;;;;;;;;;;;21.40;92.00;21.50;99238.00;;;;334103;29;83819;-89
2023/06/02 00:29:21;;;;;;;;;;;21.40;92.10;21.50;99235.00;;;;333295;29;96855;-89
2023/06/02 00:29:33;;;;;;;;;;;21.40;91.90;21.40;99235.00;;;;331421;29;82469;-89
2023/06/02 00:29:45;;;;;;;;;;;21.40;91.90;21.30;99233.00;;;;330731;29;97362;-89
2023/06/02 00:29:57;;;;;;;;;;;21.40;92.10;21.20;99244.00;;;;335387;29;83408;-89
2023/06/02 00:30:10;;;;;;;;;;;21.40;92.30;21.20;99236.00;;;;330742;29;96015;-89
2023/06/02 00:30:21;;;;;;;;;;;21.40;92.40;21.30;99232.00;;;;334078;29;83538;-89
2023/06/02 00:30:34;;;;;;;;;;;21.30;92.30;21.30;99226.00;;;;333265;29;96886;-88
2023/06/02 00:30:46;;;;;;;;;;;21.40;92.20;21.30;99242.00;;;;334056;29;83380;-89
2023/06/02 00:30:58;;;;;;;;;;;21.40;92.20;21.30;99236.00;;;;331855;29;96318;-89
2023/06/02 00:31:10;;;;;;;;;;;21.40;92.30;21.40;99229.00;;;;335454;29;83335;-89
2023/06/02 00:31:22;;;;;;;;;;;21.40;92.30;21.40;99237.00;;;;333157;29;94763;-89
2023/06/02 00:31:34;;;;;;;;;;;21.40;92.00;21.40;99231.00;;;;332750;29;83285;-89
2023/06/02 00:31:46;;;;;;;;;;;21.40;91.90;21.40;99231.00;;;;334582;29;96038;-88
2023/06/02 00:31:58;;;;;;;;;;;21.40;91.90;21.40;99233.00;;;;334056;29;83267;-89
2023/06/02 00:32:10;;;;;;;;;;;21.40;92.00;21.40;99236.00;;;;330788;29;95297;-89
2023/06/02 00:32:22;;;;;;;;;;;21.30;92.20;21.40;99226.00;;;;333978;29;83578;-89
2023/06/02 00:32:34;;;;;;;;;;;21.40;92.20;21.40;99226.00;;;;334480;29;96720;-89
2023/06/02 00:32:46;;;;;;;;;;;21.40;92.30;21.40;99227.00;;;;335282;29;83278;-88
2023/06/02 00:32:58;;;;;;;;;;;21.40;92.30;21.30;99230.00;;;;334435;29;97543;-89
2023/06/02 00:33:09;;;;;;;;;;;21.40;92.10;21.30;99231.00;;;;336636;28;82628;-89
2023/06/02 00:33:21;;;;;;;;;;;21.40;92.20;21.30;99231.00;;;;333396;29;95779;-89
2023/06/02 00:33:34;;;;;;;;;;;21.30;92.30;21.30;99232.00;;;;336547;28;83459;-89
2023/06/02 00:33:46;;;;;;;;;;;21.30;92.50;21.30;99229.00;;;;332013;29;96692;-89
2023/06/02 00:33:58;;;;;;;;;;;21.30;92.60;21.40;99223.00;;;;332741;29;82506;-89
2023/06/02 00:34:10;;;;;;;;;;;21.30;92.40;21.40;99224.00;;;;334634;29;96097;-89
2023/06/02 00:34:22;;;;;;;;;;;21.30;92.20;21.40;99220.00;;;;332862;29;83466;-88
2023/06/02 00:34:34;;;;;;;;;;;21.30;92.30;21.40;99229.00;;;;333208;29;97030;-89
2023/06/02 00:34:46;;;;;;;;;;;21.30;92.20;21.30;99226.00;;;;335390;29;82385;-88
2023/06/02 00:34:58;;;;;;;;;;;21.30;92.20;21.30;99226.00;;;;333140;29;97373;-88
2023/06/02 00:35:10;;;;;;;;;;;21.30;92.20;21.30;99238.00;;;;334039;29;83566;-89
2023/06/02 00:35:22;;;;;;;;;;;21.30;92.30;21.40;99232.00;;;;334641;29;95624;-89
2023/06/02 00:35:34;;;;;;;;;;;21.30;92.10;21.60;99226.00;;;;331444;29;83417;-88
2023/06/02 00:35:46;;;;;;;;;;;21.30;92.10;21.60;99232.00;;;;331956;29;96639;-89
2023/06/02 00:35:57;;;;;;;;;;;21.30;92.20;21.60;99226.00;;;;334082;29;83268;-88
2023/06/02 00:36:09;;;;;;;;;;;21.30;92.20;21.50;99229.00;;;;334589;29;96566;-89
2023/06/02 00:36:22;;;;;;;;;;;21.40;92.20;21.50;99221.00;;;;336694;28;83256;-89
2023/06/02 00:36:33;;;;;;;;;;;21.40;92.50;21.50;99224.00;;;;331948;29;97130;-88
2023/06/02 00:36:45;;;;;;;;;;;21.30;92.20;21.60;99226.00;;;;335549;29;82546;-89
2023/06/02 00:36:57;;;;;;;;;;;21.30;92.00;21.70;99225.00;;;;333176;29;97351;-89
2023/06/02 00:37:09;;;;;;;;;;;21.30;92.00;21.70;99226.00;;;;332668;29;83492;-89
2023/06/02 00:37:21;;;;;;;;;;;21.40;92.10;21.80;99230.00;;;;333327;29;96177;-89
2023/06/02 00:37:33;;;;;;;;;;;21.40;92.10;21.70;99230.00;;;;334019;29;83335;-89
2023/06/02 00:37:44;;;;;;;;;;;21.40;92.20;21.60;99231.00;;;;333301;29;95696;-89
2023/06/02 00:37:56;;;;;;;;;;;21.40;92.10;21.60;99226.00;;;;332679;29;83519;-89
2023/06/02 00:38:08;;;;;;;;;;;21.40;92.00;21.60;99228.00;;;;333196;29;96461;-89
2023/06/02 00:38:20;;;;;;;;;;;21.40;92.00;21.60;99223.00;;;;335323;29;82509;-89
2023/06/02 00:38:32;;;;;;;;;;;21.40;92.00;21.50;99223.00;;;;334583;29;95985;-89
2023/06/02 00:38:43;;;;;;;;;;;21.40;92.20;21.50;99223.00;;;;333962;29;83354;-88
2023/06/02 00:38:55;;;;;;;;;;;21.40;92.20;21.60;99223.00;;;;334388;29;97940;-89
2023/06/02 00:39:07;;;;;;;;;;;21.40;92.10;21.60;99226.00;;;;335287;29;83358;-89
2023/06/02 00:39:19;;;;;;;;;;;21.40;92.00;21.60;99225.00;;;;332077;29;93798;-89
2023/06/02 00:39:31;;;;;;;;;;;21.40;91.90;21.70;99222.00;;;;332853;29;82554;-88
2023/06/02 00:39:43;;;;;;;;;;;21.40;91.90;21.70;99221.00;;;;334549;29;97087;-89
2023/06/02 00:39:55;;;;;;;;;;;21.40;91.90;21.70;99226.00;;;;333978;29;82636;-89
2023/06/02 00:40:07;;;;;;;;;;;21.40;91.80;21.70;99222.00;;;;333319;29;93264;-89
2023/06/02 00:40:20;;;;;;;;;;;21.40;91.90;21.60;99222.00;;;;334005;29;83480;-88
2023/06/02 00:40:32;;;;;;;;;;;21.40;92.30;21.60;99224.00;;;;333271;29;95555;-89
2023/06/02 00:40:44;;;;;;;;;;;21.40;92.20;21.60;99225.00;;;;333933;29;83387;-89
2023/06/02 00:40:55;;;;;;;;;;;21.40;92.10;21.60;99228.00;;;;331838;29;96426;-89
2023/06/02 00:41:08;;;;;;;;;;;21.40;92.00;21.60;99224.00;;;;332764;29;83468;-89
2023/06/02 00:41:20;;;;;;;;;;;21.40;92.00;21.60;99221.00;;;;333286;29;96739;-89
2023/06/02 00:41:32;;;;;;;;;;;21.40;92.00;21.70;99223.00;;;;336681;28;82281;-88
2023/06/02 00:41:44;;;;;;;;;;;21.40;91.90;21.70;99216.00;;;;334554;29;95364;-89
2023/06/02 00:41:56;;;;;;;;;;;21.40;91.90;21.60;99225.00;;;;335376;29;82500;-89
2023/06/02 00:42:08;;;;;;;;;;;21.40;91.90;21.60;99225.00;;;;334554;29;95158;-89
2023/06/02 00:42:20;;;;;;;;;;;21.40;91.80;21.70;99233.00;;;;335275;29;82553;-89
2023/06/02 00:42:32;;;;;;;;;;;21.50;91.80;21.80;99222.00;;;;333242;29;96574;-89
2023/06/02 00:42:44;;;;;;;;;;;21.40;92.00;21.70;99226.00;;;;332883;29;83393;-89
2023/06/02 00:42:56;;;;;;;;;;;21.40;92.20;21.60;99221.00;;;;333212;29;94897;-89
2023/06/02 00:43:08;;;;;;;;;;;21.50;92.30;21.60;99224.00;;;;336821;28;83462;-89
2023/06/02 00:43:20;;;;;;;;;;;21.50;92.20;21.60;99223.00;;;;333355;29;96005;-89
2023/06/02 00:43:31;;;;;;;;;;;21.40;92.00;21.60;99224.00;;;;334197;29;82511;-88
2023/06/02 00:43:43;;;;;;;;;;;21.50;92.20;21.50;99217.00;;;;334619;29;96693;-89
2023/06/02 00:43:56;;;;;;;;;;;21.40;92.20;21.40;99221.00;;;;334089;29;83364;-88
2023/06/02 00:44:07;;;;;;;;;;;21.40;92.30;21.40;99221.00;;;;332074;29;95379;-88
2023/06/02 00:44:20;;;;;;;;;;;21.40;92.40;21.50;99220.00;;;;334018;29;82583;-88
2023/06/02 00:44:31;;;;;;;;;;;21.40;92.20;21.60;99227.00;;;;335957;28;93020;-89
2023/06/02 00:44:43;;;;;;;;;;;21.40;92.00;21.60;99229.00;;;;334048;29;83479;-89
2023/06/02 00:44:55;;;;;;;;;;;21.40;92.20;21.50;99222.00;;;;333230;29;97269;-89
2023/06/02 00:45:08;;;;;;;;;;;21.40;92.50;21.50;99225.00;;;;332823;29;82466;-89
2023/06/02 00:45:20;;;;;;;;;;;21.40;92.50;21.60;99224.00;;;;331933;29;96620;-89
2023/06/02 00:45:32;;;;;;;;;;;21.40;92.30;21.60;99219.00;;;;335609;29;83433;-89
2023/06/02 00:45:44;;;;;;;;;;;21.40;92.10;21.60;99226.00;;;;333608;29;96484;-88
2023/06/02 00:45:56;;;;;;;;;;;21.40;92.20;21.60;99227.00;;;;331703;29;83396;-89
2023/06/02 00:46:08;;;;;;;;;;;21.40;92.20;21.50;99222.00;;;;332209;29;94862;-89
2023/06/02 00:46:20;;;;;;;;;;;21.40;92.40;21.60;99224.00;;;;332907;29;82606;-89
2023/06/02 00:46:32;;;;;;;;;;;21.40;92.40;21.50;99224.00;;;;334781;29;96367;-89
2023/06/02 00:46:44;;;;;;;;;;;21.40;92.40;21.50;99224.00;;;;334257;29;83314;-89
2023/06/02 00:46:56;;;;;;;;;;;21.40;92.30;21.50;99223.00;;;;332140;29;96346;-89
2023/06/02 00:47:09;;;;;;;;;;;21.40;92.20;21.50;99224.00;;;;331688;29;82577;-89
2023/06/02 00:47:21;;;;;;;;;;;21.40;92.30;21.50;99224.00;;;;330911;29;96350;-89
2023/06/02 00:47:33;;;;;;;;;;;21.40;92.50;21.40;99225.00;;;;334216;29;83408;-89
2023/06/02 00:47:45;;;;;;;;;;;21.40;92.50;21.40;99221.00;;;;333604;29;94180;-89
2023/06/02 00:47:57;;;;;;;;;;;21.40;92.50;21.30;99222.00;;;;335458;29;82322;-89
2023/06/02 00:48:09;;;;;;;;;;;21.40;92.50;21.20;99224.00;;;;333460;29;97097;-89
2023/06/02 00:48:21;;;;;;;;;;;21.40;92.60;21.20;99227.00;;;;331537;29;83615;-89
2023/06/02 00:48:33;;;;;;;;;;;21.40;92.70;21.20;99225.00;;;;333585;29;94973;-89
2023/06/02 00:48:47;;;;;;;;;;;21.30;92.70;21.20;99229.00;;;;335563;29;82576;-89
2023/06/02 00:48:59;;;;;;;;;;;21.40;92.70;21.30;99225.00;;;;333339;29;97683;-89
2023/06/02 00:49:11;;;;;;;;;;;21.40;92.70;21.40;99224.00;;;;335483;29;82530;-89
2023/06/02 00:49:23;;;;;;;;;;;21.40;92.50;21.50;99223.00;;;;333486;29;97081;-89
2023/06/02 00:49:34;;;;;;;;;;;21.30;92.40;21.40;99225.00;;;;335550;29;82470;-90
2023/06/02 00:49:46;;;;;;;;;;;21.40;92.40;21.40;99219.00;;;;336050;28;97045;-89
2023/06/02 00:49:58;;;;;;;;;;;21.30;92.50;21.40;99225.00;;;;335480;29;83417;-89
2023/06/02 00:50:10;;;;;;;;;;;21.30;92.70;21.30;99225.00;;;;334783;29;96394;-89
2023/06/02 00:50:22;;;;;;;;;;;21.30;92.80;21.30;99227.00;;;;332910;29;82606;-89
2023/06/02 00:50:34;;;;;;;;;;;21.30;92.70;21.40;99223.00;;;;332159;29;96373;-89
2023/06/02 00:50:46;;;;;;;;;;;21.30;92.60;21.40;99223.00;;;;334280;29;83411;-89
2023/06/02 00:50:58;;;;;;;;;;;21.30;92.60;21.50;99223.00;;;;335930;28;98574;-89
2023/06/02 00:51:10;;;;;;;;;;;21.30;92.40;21.50;99215.00;;;;331618;29;83429;-89
2023/06/02 00:51:22;;;;;;;;;;;21.30;92.40;21.60;99220.00;;;;332307;29;95104;-89
2023/06/02 00:51:34;;;;;;;;;;;21.30;92.50;21.60;99225.00;;;;332886;29;83461;-89
2023/06/02 00:51:46;;;;;;;;;;;21.30;92.50;21.50;99227.00;;;;334820;29;96219;-87
2023/06/02 00:51:57;;;;;;;;;;;21.30;92.60;21.50;99219.00;;;;334178;29;83640;-89
2023/06/02 00:52:09;;;;;;;;;;;21.30;92.70;21.50;99214.00;;;;332191;29;95818;-89
2023/06/02 00:52:21;;;;;;;;;;;21.30;92.70;21.50;99221.00;;;;332890;29;82604;-89
2023/06/02 00:52:33;;;;;;;;;;;21.30;92.60;21.50;99216.00;;;;336044;28;96677;-89
2023/06/02 00:52:45;;;;;;;;;;;21.30;92.40;21.50;99224.00;;;;336777;28;83409;-89
2023/06/02 00:52:57;;;;;;;;;;;21.40;92.40;21.40;99217.00;;;;332079;29;95561;-89
2023/06/02 00:53:09;;;;;;;;;;;21.30;92.80;21.40;99216.00;;;;332865;29;83443;-89
2023/06/02 00:53:21;;;;;;;;;;;21.30;92.70;21.30;99224.00;;;;333486;29;94178;-89
2023/06/02 00:53:33;;;;;;;;;;;21.30;92.70;21.40;99213.00;;;;334363;29;83314;-89
2023/06/02 00:53:46;;;;;;;;;;;21.30;92.70;21.50;99218.00;;;;332189;29;95710;-89
2023/06/02 00:53:57;;;;;;;;;;;21.30;92.70;21.40;99219.00;;;;334327;29;82459;-89
2023/06/02 00:54:09;;;;;;;;;;;21.30;92.90;21.30;99217.00;;;;333548;29;94296;-89
2023/06/02 00:54:21;;;;;;;;;;;21.30;93.10;21.30;99219.00;;;;332851;29;83496;-89
2023/06/02 00:54:33;;;;;;;;;;;21.30;93.10;21.30;99223.00;;;;333465;29;95230;-88
2023/06/02 00:54:45;;;;;;;;;;;21.30;93.30;21.30;99219.00;;;;334222;29;83415;-89
2023/06/02 00:54:57;;;;;;;;;;;21.30;93.20;21.20;99216.00;;;;331818;29;97674;-89
2023/06/02 00:55:09;;;;;;;;;;;21.30;93.10;21.30;99218.00;;;;334201;29;83535;-89
2023/06/02 00:55:21;;;;;;;;;;;21.30;93.00;21.30;99218.00;;;;337412;28;97255;-89
2023/06/02 00:55:32;;;;;;;;;;;21.30;92.80;21.40;99215.00;;;;336839;28;83425;-88
2023/06/02 00:55:44;;;;;;;;;;;21.30;92.70;21.40;99216.00;;;;334802;29;96457;-89
2023/06/02 00:55:56;;;;;;;;;;;21.30;92.60;21.30;99220.00;;;;336842;28;83399;-89
2023/06/02 00:56:08;;;;;;;;;;;21.30;92.70;21.40;99224.00;;;;336098;28;95002;-89
2023/06/02 00:56:23;;;;;;;;;;;21.30;92.60;21.40;99220.00;;;;334173;29;82525;-89
2023/06/02 00:56:34;;;;;;;;;;;21.30;92.60;21.50;99218.00;;;;334739;29;96747;-89
2023/06/02 00:56:46;;;;;;;;;;;21.30;92.60;21.40;99224.00;;;;338276;28;83359;-89
2023/06/02 00:56:58;;;;;;;;;;;21.30;92.80;21.40;99217.00;;;;334792;29;96878;-88
2023/06/02 00:57:10;;;;;;;;;;;21.30;92.80;21.40;99220.00;;;;337037;28;83487;-90
2023/06/02 00:57:28;;;;;;;;;;;21.30;92.80;21.40;99216.00;;;;336247;28;92702;-89
2023/06/02 00:57:40;;;;;;;;;;;21.30;92.80;21.40;99219.00;;;;335595;29;83547;-89
2023/06/02 00:57:53;;;;;;;;;;;21.30;93.10;21.30;99224.00;;;;333553;29;96606;-89
2023/06/02 00:58:07;;;;;;;;;;;21.30;93.00;21.40;99215.00;;;;333093;29;83417;-89
2023/06/02 00:58:19;;;;;;;;;;;21.20;92.90;21.40;99217.00;;;;334774;29;96970;-89
2023/06/02 00:58:37;;;;;;;;;;;21.30;92.70;21.30;99227.00;;;;336934;28;83348;-89
2023/06/02 00:58:49;;;;;;;;;;;21.20;92.90;21.40;99213.00;;;;332361;29;94301;-89
2023/06/02 00:59:02;;;;;;;;;;;21.20;92.60;21.40;99220.00;;;;335693;29;83557;-88
2023/06/02 00:59:14;;;;;;;;;;;21.20;92.50;21.30;99220.00;;;;334768;29;97006;-89
2023/06/02 00:59:27;;;;;;;;;;;21.20;92.70;21.30;99218.00;;;;334525;29;83138;-89
2023/06/02 00:59:39;;;;;;;;;;;21.20;92.90;21.30;99224.00;;;;334855;29;97161;-90
2023/06/02 00:59:51;;;;;;;;;;;21.20;93.00;21.20;99217.00;;;;335781;29;83455;-89
2023/06/02 01:00:04;;;;;;;;;;;21.20;93.00;21.30;99221.00;;;;333813;29;94481;-89
2023/06/02 01:00:18;;;;;;;;;;;21.20;93.00;21.30;99219.00;;;;331853;29;83347;-89
2023/06/02 01:00:36;;;;;;;;;;;21.20;93.10;21.30;99221.00;;;;333652;29;96981;-87
2023/06/02 01:00:49;;;;;;;;;;;21.20;93.00;21.40;99212.00;;;;333063;29;83395;-89
2023/06/02 01:01:01;;;;;;;;;;;21.20;92.70;21.40;99220.00;;;;331036;29;97219;-89
2023/06/02 01:01:13;;;;;;;;;;;21.20;92.60;21.50;99221.00;;;;333094;29;83427;-89